sensor_id;sensor_type;location;lat;lon;timestamp;temperature;humidity
2639;DHT22;1329;51.384;7.122;2022-12-29T00:01:43;11.30;99.90
2639;DHT22;1329;51.384;7.122;2022-12-29T00:04:12;11.40;99.90
2639;DHT22;1329;51.384;7.122;2022-12-29T00:06:42;11.40;99.90
2639;DHT22;1329;51.384;7.122;2022-12-29T00:09:11;11.40;99.90
2639;DHT22;1329;51.384;7.122;2022-12-29T00:11:38;11.40;99.90
2639;DHT22;1329;51.384;7.122;2022-12-29T00:14:07;11.40;99.90
2639;DHT22;1329;51.384;7.122;2022-12-29T00:16:52;11.40;99.90
2639;DHT22;1329;51.384;7.122;2022-12-29T00:19:20;11.40;99.90
2639;DHT22;1329;51.384;7.122;2022-12-29T00:22:07;11.40;99.90
2639;DHT22;1329;51.384;7.122;2022-12-29T00:24:53;11.40;99.90
2639;DHT22;1329;51.384;7.122;2022-12-29T00:27:37;11.40;99.90
2639;DHT22;1329;51.384;7.122;2022-12-29T00:30:23;11.40;99.90
2639;DHT22;1329;51.384;7.122;2022-12-29T00:33:11;11.40;99.90
2639;DHT22;1329;51.384;7.122;2022-12-29T00:36:00;11.40;99.90
2639;DHT22;1329;51.384;7.122;2022-12-29T00:38:31;11.40;99.90
2639;DHT22;1329;51.384;7.122;2022-12-29T00:41:17;11.40;99.90
2639;DHT22;1329;51.384;7.122;2022-12-29T00:44:01;11.40;99.90
2639;DHT22;1329;51.384;7.122;2022-12-29T00:46:31;11.40;99.90
2639;DHT22;1329;51.384;7.122;2022-12-29T00:48:58;11.40;99.90
2639;DHT22;1329;51.384;7.122;2022-12-29T00:51:43;11.40;99.90
2639;DHT22;1329;51.384;7.122;2022-12-29T00:54:12;11.40;99.90
2639;DHT22;1329;51.384;7.122;2022-12-29T00:56:39;11.40;99.90
2639;DHT22;1329;51.384;7.122;2022-12-29T00:59:08;11.40;99.90
2639;DHT22;1329;51.384;7.122;2022-12-29T01:01:37;11.40;99.90
2639;DHT22;1329;51.384;7.122;2022-12-29T01:04:05;11.50;99.90
2639;DHT22;1329;51.384;7.122;2022-12-29T01:06:33;11.50;99.90
2639;DHT22;1329;51.384;7.122;2022-12-29T01:09:02;11.50;99.90
2639;DHT22;1329;51.384;7.122;2022-12-29T01:11:48;11.50;99.90
2639;DHT22;1329;51.384;7.122;2022-12-29T01:14:15;11.50;99.90
2639;DHT22;1329;51.384;7.122;2022-12-29T01:16:42;11.40;99.90
2639;DHT22;1329;51.384;7.122;2022-12-29T01:19:09;11.50;99.90
2639;DHT22;1329;51.384;7.122;2022-12-29T01:21:36;11.50;99.90
2639;DHT22;1329;51.384;7.122;2022-12-29T01:24:04;11.50;99.90
2639;DHT22;1329;51.384;7.122;2022-12-29T01:26:31;11.50;99.90
2639;DHT22;1329;51.384;7.122;2022-12-29T01:29:00;11.60;99.90
2639;DHT22;1329;51.384;7.122;2022-12-29T01:31:27;11.50;99.90
2639;DHT22;1329;51.384;7.122;2022-12-29T01:33:54;11.60;99.90
2639;DHT22;1329;51.384;7.122;2022-12-29T01:36:21;11.60;99.90
2639;DHT22;1329;51.384;7.122;2022-12-29T01:38:48;11.60;99.90
2639;DHT22;1329;51.384;7.122;2022-12-29T01:41:16;11.60;99.90
2639;DHT22;1329;51.384;7.122;2022-12-29T01:43:45;11.70;99.90
2639;DHT22;1329;51.384;7.122;2022-12-29T01:46:20;11.70;99.90
2639;DHT22;1329;51.384;7.122;2022-12-29T01:48:52;11.70;99.90
2639;DHT22;1329;51.384;7.122;2022-12-29T01:51:22;11.70;99.90
2639;DHT22;1329;51.384;7.122;2022-12-29T01:53:51;11.70;99.90
2639;DHT22;1329;51.384;7.122;2022-12-29T01:56:20;11.70;99.90
2639;DHT22;1329;51.384;7.122;2022-12-29T01:58:49;11.70;99.90
2639;DHT22;1329;51.384;7.122;2022-12-29T02:01:21;11.70;99.90
2639;DHT22;1329;51.384;7.122;2022-12-29T02:03:49;11.70;99.90
2639;DHT22;1329;51.384;7.122;2022-12-29T02:06:21;11.70;99.90
2639;DHT22;1329;51.384;7.122;2022-12-29T02:08:50;11.80;99.90
2639;DHT22;1329;51.384;7.122;2022-12-29T02:11:19;11.80;99.90
2639;DHT22;1329;51.384;7.122;2022-12-29T02:13:48;11.80;99.90
2639;DHT22;1329;51.384;7.122;2022-12-29T02:16:27;11.80;99.90
2639;DHT22;1329;51.384;7.122;2022-12-29T02:19:12;11.80;99.90
2639;DHT22;1329;51.384;7.122;2022-12-29T02:22:09;11.80;99.90
2639;DHT22;1329;51.384;7.122;2022-12-29T02:25:12;11.80;99.90
2639;DHT22;1329;51.384;7.122;2022-12-29T02:28:06;11.80;99.90
2639;DHT22;1329;51.384;7.122;2022-12-29T02:30:52;11.80;99.90
2639;DHT22;1329;51.384;7.122;2022-12-29T02:33:34;11.80;99.90
2639;DHT22;1329;51.384;7.122;2022-12-29T02:36:15;11.80;99.90
2639;DHT22;1329;51.384;7.122;2022-12-29T02:38:55;11.80;99.90
2639;DHT22;1329;51.384;7.122;2022-12-29T02:41:32;11.80;99.90
2639;DHT22;1329;51.384;7.122;2022-12-29T02:44:05;11.80;99.90
2639;DHT22;1329;51.384;7.122;2022-12-29T02:46:44;11.80;99.90
2639;DHT22;1329;51.384;7.122;2022-12-29T02:49:15;11.90;99.90
2639;DHT22;1329;51.384;7.122;2022-12-29T02:51:50;11.80;99.90
2639;DHT22;1329;51.384;7.122;2022-12-29T02:54:20;11.90;99.90
2639;DHT22;1329;51.384;7.122;2022-12-29T02:57:07;11.80;99.90
2639;DHT22;1329;51.384;7.122;2022-12-29T02:59:37;11.80;99.90
2639;DHT22;1329;51.384;7.122;2022-12-29T03:02:30;11.80;99.90
2639;DHT22;1329;51.384;7.122;2022-12-29T03:05:19;11.90;99.90
2639;DHT22;1329;51.384;7.122;2022-12-29T03:08:04;11.90;99.90
2639;DHT22;1329;51.384;7.122;2022-12-29T03:10:40;11.90;99.90
2639;DHT22;1329;51.384;7.122;2022-12-29T03:13:16;11.90;99.90
2639;DHT22;1329;51.384;7.122;2022-12-29T03:16:12;12.00;99.90
2639;DHT22;1329;51.384;7.122;2022-12-29T03:18:49;12.00;99.90
2639;DHT22;1329;51.384;7.122;2022-12-29T03:21:27;12.00;99.90
2639;DHT22;1329;51.384;7.122;2022-12-29T03:24:12;12.00;99.90
2639;DHT22;1329;51.384;7.122;2022-12-29T03:26:41;12.00;99.90
2639;DHT22;1329;51.384;7.122;2022-12-29T03:29:11;12.00;99.90
2639;DHT22;1329;51.384;7.122;2022-12-29T03:31:40;12.00;99.90
2639;DHT22;1329;51.384;7.122;2022-12-29T03:34:11;12.00;99.90
2639;DHT22;1329;51.384;7.122;2022-12-29T03:36:44;12.10;99.90
2639;DHT22;1329;51.384;7.122;2022-12-29T03:39:14;12.10;99.90
2639;DHT22;1329;51.384;7.122;2022-12-29T03:41:43;12.10;99.90
2639;DHT22;1329;51.384;7.122;2022-12-29T03:44:11;12.00;99.90
2639;DHT22;1329;51.384;7.122;2022-12-29T03:46:39;12.10;99.90
2639;DHT22;1329;51.384;7.122;2022-12-29T03:49:06;12.10;99.90
2639;DHT22;1329;51.384;7.122;2022-12-29T03:51:34;12.10;99.90
2639;DHT22;1329;51.384;7.122;2022-12-29T03:54:02;12.10;99.90
2639;DHT22;1329;51.384;7.122;2022-12-29T03:56:29;12.20;99.90
2639;DHT22;1329;51.384;7.122;2022-12-29T03:58:56;12.20;99.90
2639;DHT22;1329;51.384;7.122;2022-12-29T04:01:22;12.10;99.90
2639;DHT22;1329;51.384;7.122;2022-12-29T04:03:49;12.20;99.90
2639;DHT22;1329;51.384;7.122;2022-12-29T04:06:16;12.10;99.90
2639;DHT22;1329;51.384;7.122;2022-12-29T04:08:44;12.20;99.90
2639;DHT22;1329;51.384;7.122;2022-12-29T04:11:11;12.10;99.90
2639;DHT22;1329;51.384;7.122;2022-12-29T04:13:38;12.10;99.90
2639;DHT22;1329;51.384;7.122;2022-12-29T04:16:07;12.10;99.90
2639;DHT22;1329;51.384;7.122;2022-12-29T04:18:34;12.10;99.90
2639;DHT22;1329;51.384;7.122;2022-12-29T04:21:01;12.10;99.90
2639;DHT22;1329;51.384;7.122;2022-12-29T04:23:30;12.10;99.90
2639;DHT22;1329;51.384;7.122;2022-12-29T04:26:00;12.10;99.90
2639;DHT22;1329;51.384;7.122;2022-12-29T04:28:27;12.10;99.90
2639;DHT22;1329;51.384;7.122;2022-12-29T04:30:55;12.10;99.90
2639;DHT22;1329;51.384;7.122;2022-12-29T04:33:22;12.10;99.90
2639;DHT22;1329;51.384;7.122;2022-12-29T04:35:50;12.10;99.90
2639;DHT22;1329;51.384;7.122;2022-12-29T04:38:18;12.10;99.90
2639;DHT22;1329;51.384;7.122;2022-12-29T04:40:46;12.20;99.90
2639;DHT22;1329;51.384;7.122;2022-12-29T04:43:15;12.20;99.90
2639;DHT22;1329;51.384;7.122;2022-12-29T04:45:44;12.10;99.90
2639;DHT22;1329;51.384;7.122;2022-12-29T04:48:12;12.20;99.90
2639;DHT22;1329;51.384;7.122;2022-12-29T04:50:39;12.20;99.90
2639;DHT22;1329;51.384;7.122;2022-12-29T04:53:06;12.20;99.90
2639;DHT22;1329;51.384;7.122;2022-12-29T04:55:34;12.20;99.90
2639;DHT22;1329;51.384;7.122;2022-12-29T04:58:01;12.20;99.90
2639;DHT22;1329;51.384;7.122;2022-12-29T05:00:30;12.30;99.90
2639;DHT22;1329;51.384;7.122;2022-12-29T05:02:56;12.30;99.90
2639;DHT22;1329;51.384;7.122;2022-12-29T05:05:23;12.30;99.90
2639;DHT22;1329;51.384;7.122;2022-12-29T05:07:50;12.30;99.90
2639;DHT22;1329;51.384;7.122;2022-12-29T05:10:18;12.40;99.90
2639;DHT22;1329;51.384;7.122;2022-12-29T05:12:44;12.40;99.90
2639;DHT22;1329;51.384;7.122;2022-12-29T05:15:11;12.40;99.90
2639;DHT22;1329;51.384;7.122;2022-12-29T05:17:40;12.40;99.90
2639;DHT22;1329;51.384;7.122;2022-12-29T05:20:07;12.40;99.90
2639;DHT22;1329;51.384;7.122;2022-12-29T05:22:35;12.40;99.90
2639;DHT22;1329;51.384;7.122;2022-12-29T05:25:03;12.40;99.90
2639;DHT22;1329;51.384;7.122;2022-12-29T05:27:30;12.50;99.90
2639;DHT22;1329;51.384;7.122;2022-12-29T05:29:57;12.50;99.90
2639;DHT22;1329;51.384;7.122;2022-12-29T05:32:24;12.50;99.90
2639;DHT22;1329;51.384;7.122;2022-12-29T05:34:52;12.50;99.90
2639;DHT22;1329;51.384;7.122;2022-12-29T05:37:19;12.60;99.90
2639;DHT22;1329;51.384;7.122;2022-12-29T05:39:46;12.60;99.90
2639;DHT22;1329;51.384;7.122;2022-12-29T05:42:13;12.60;99.90
2639;DHT22;1329;51.384;7.122;2022-12-29T05:44:39;12.60;99.90
2639;DHT22;1329;51.384;7.122;2022-12-29T05:47:06;12.60;99.90
2639;DHT22;1329;51.384;7.122;2022-12-29T05:49:34;12.70;99.90
2639;DHT22;1329;51.384;7.122;2022-12-29T05:52:02;12.70;99.90
2639;DHT22;1329;51.384;7.122;2022-12-29T05:54:30;12.70;99.90
2639;DHT22;1329;51.384;7.122;2022-12-29T05:56:57;12.70;99.90
2639;DHT22;1329;51.384;7.122;2022-12-29T05:59:24;12.70;99.90
2639;DHT22;1329;51.384;7.122;2022-12-29T06:01:51;12.70;99.90
2639;DHT22;1329;51.384;7.122;2022-12-29T06:04:18;12.70;99.90
2639;DHT22;1329;51.384;7.122;2022-12-29T06:06:45;12.70;99.90
2639;DHT22;1329;51.384;7.122;2022-12-29T06:09:13;12.70;99.90
2639;DHT22;1329;51.384;7.122;2022-12-29T06:11:40;12.70;99.90
2639;DHT22;1329;51.384;7.122;2022-12-29T06:14:08;12.70;99.90
2639;DHT22;1329;51.384;7.122;2022-12-29T06:16:35;12.80;99.90
2639;DHT22;1329;51.384;7.122;2022-12-29T06:19:02;12.70;99.90
2639;DHT22;1329;51.384;7.122;2022-12-29T06:21:29;12.70;99.90
2639;DHT22;1329;51.384;7.122;2022-12-29T06:23:56;12.70;99.90
2639;DHT22;1329;51.384;7.122;2022-12-29T06:26:24;12.70;99.90
2639;DHT22;1329;51.384;7.122;2022-12-29T06:28:51;12.80;99.90
2639;DHT22;1329;51.384;7.122;2022-12-29T06:31:18;12.80;99.90
2639;DHT22;1329;51.384;7.122;2022-12-29T06:33:45;12.80;99.90
2639;DHT22;1329;51.384;7.122;2022-12-29T06:36:12;12.80;99.90
2639;DHT22;1329;51.384;7.122;2022-12-29T06:38:39;12.70;99.90
2639;DHT22;1329;51.384;7.122;2022-12-29T06:41:06;12.70;99.90
2639;DHT22;1329;51.384;7.122;2022-12-29T06:43:34;12.60;99.90
2639;DHT22;1329;51.384;7.122;2022-12-29T06:46:03;12.60;99.90
2639;DHT22;1329;51.384;7.122;2022-12-29T06:48:30;12.60;99.90
2639;DHT22;1329;51.384;7.122;2022-12-29T06:50:57;12.60;99.90
2639;DHT22;1329;51.384;7.122;2022-12-29T06:53:24;12.50;99.90
2639;DHT22;1329;51.384;7.122;2022-12-29T06:55:51;12.60;99.90
2639;DHT22;1329;51.384;7.122;2022-12-29T06:58:18;12.50;99.90
2639;DHT22;1329;51.384;7.122;2022-12-29T07:00:46;12.50;99.90
2639;DHT22;1329;51.384;7.122;2022-12-29T07:03:14;12.50;99.90
2639;DHT22;1329;51.384;7.122;2022-12-29T07:05:41;12.50;99.90
2639;DHT22;1329;51.384;7.122;2022-12-29T07:08:08;12.60;99.90
2639;DHT22;1329;51.384;7.122;2022-12-29T07:10:34;12.60;99.90
2639;DHT22;1329;51.384;7.122;2022-12-29T07:13:01;12.50;99.90
2639;DHT22;1329;51.384;7.122;2022-12-29T07:15:28;12.50;99.90
2639;DHT22;1329;51.384;7.122;2022-12-29T07:17:57;12.60;99.90
2639;DHT22;1329;51.384;7.122;2022-12-29T07:20:23;12.60;99.90
2639;DHT22;1329;51.384;7.122;2022-12-29T07:22:50;12.50;99.90
2639;DHT22;1329;51.384;7.122;2022-12-29T07:25:17;12.50;99.90
2639;DHT22;1329;51.384;7.122;2022-12-29T07:27:44;12.50;99.90
2639;DHT22;1329;51.384;7.122;2022-12-29T07:30:12;12.50;99.90
2639;DHT22;1329;51.384;7.122;2022-12-29T07:32:39;12.50;99.90
2639;DHT22;1329;51.384;7.122;2022-12-29T07:35:08;12.50;99.90
2639;DHT22;1329;51.384;7.122;2022-12-29T07:37:35;12.50;99.90
2639;DHT22;1329;51.384;7.122;2022-12-29T07:40:03;12.50;99.90
2639;DHT22;1329;51.384;7.122;2022-12-29T07:42:30;12.50;99.90
2639;DHT22;1329;51.384;7.122;2022-12-29T07:44:58;12.40;99.90
2639;DHT22;1329;51.384;7.122;2022-12-29T07:47:25;12.40;99.90
2639;DHT22;1329;51.384;7.122;2022-12-29T07:49:53;12.40;99.90
2639;DHT22;1329;51.384;7.122;2022-12-29T07:52:21;12.40;99.90
2639;DHT22;1329;51.384;7.122;2022-12-29T07:54:48;12.40;99.90
2639;DHT22;1329;51.384;7.122;2022-12-29T07:57:15;12.30;99.90
2639;DHT22;1329;51.384;7.122;2022-12-29T07:59:42;12.40;99.90
2639;DHT22;1329;51.384;7.122;2022-12-29T08:02:10;12.40;99.90
2639;DHT22;1329;51.384;7.122;2022-12-29T08:04:37;12.40;99.90
2639;DHT22;1329;51.384;7.122;2022-12-29T08:07:04;12.40;99.90
2639;DHT22;1329;51.384;7.122;2022-12-29T08:09:32;12.40;99.90
2639;DHT22;1329;51.384;7.122;2022-12-29T08:11:59;12.40;99.90
2639;DHT22;1329;51.384;7.122;2022-12-29T08:14:26;12.40;99.90
2639;DHT22;1329;51.384;7.122;2022-12-29T08:16:53;12.40;99.90
2639;DHT22;1329;51.384;7.122;2022-12-29T08:19:20;12.40;99.90
2639;DHT22;1329;51.384;7.122;2022-12-29T08:21:47;12.40;99.90
2639;DHT22;1329;51.384;7.122;2022-12-29T08:24:13;12.40;99.90
2639;DHT22;1329;51.384;7.122;2022-12-29T08:26:42;12.40;99.90
2639;DHT22;1329;51.384;7.122;2022-12-29T08:29:09;12.40;99.90
2639;DHT22;1329;51.384;7.122;2022-12-29T08:31:36;12.50;99.90
2639;DHT22;1329;51.384;7.122;2022-12-29T08:34:03;12.40;99.90
2639;DHT22;1329;51.384;7.122;2022-12-29T08:36:31;12.40;99.90
2639;DHT22;1329;51.384;7.122;2022-12-29T08:38:58;12.40;99.90
2639;DHT22;1329;51.384;7.122;2022-12-29T08:41:25;12.40;99.90
2639;DHT22;1329;51.384;7.122;2022-12-29T08:43:53;12.40;99.90
2639;DHT22;1329;51.384;7.122;2022-12-29T08:46:21;12.40;99.90
2639;DHT22;1329;51.384;7.122;2022-12-29T08:48:48;12.40;99.90
2639;DHT22;1329;51.384;7.122;2022-12-29T08:51:15;12.50;99.90
2639;DHT22;1329;51.384;7.122;2022-12-29T08:53:42;12.50;99.90
2639;DHT22;1329;51.384;7.122;2022-12-29T08:56:10;12.50;99.90
2639;DHT22;1329;51.384;7.122;2022-12-29T08:58:37;12.50;99.90
2639;DHT22;1329;51.384;7.122;2022-12-29T09:01:06;12.50;99.90
2639;DHT22;1329;51.384;7.122;2022-12-29T09:03:35;12.40;99.90
2639;DHT22;1329;51.384;7.122;2022-12-29T09:06:03;12.40;99.90
2639;DHT22;1329;51.384;7.122;2022-12-29T09:08:31;12.40;99.90
2639;DHT22;1329;51.384;7.122;2022-12-29T09:11:06;12.30;99.90
2639;DHT22;1329;51.384;7.122;2022-12-29T09:13:35;12.30;99.90
2639;DHT22;1329;51.384;7.122;2022-12-29T09:16:03;12.20;99.90
2639;DHT22;1329;51.384;7.122;2022-12-29T09:18:32;12.10;99.90
2639;DHT22;1329;51.384;7.122;2022-12-29T09:21:01;12.10;99.90
2639;DHT22;1329;51.384;7.122;2022-12-29T09:23:30;12.10;99.90
2639;DHT22;1329;51.384;7.122;2022-12-29T09:25:58;12.10;99.90
2639;DHT22;1329;51.384;7.122;2022-12-29T09:28:26;12.00;99.90
2639;DHT22;1329;51.384;7.122;2022-12-29T09:30:54;12.00;99.90
2639;DHT22;1329;51.384;7.122;2022-12-29T09:33:21;11.90;99.90
2639;DHT22;1329;51.384;7.122;2022-12-29T09:35:52;11.90;99.90
2639;DHT22;1329;51.384;7.122;2022-12-29T09:38:20;11.90;99.90
2639;DHT22;1329;51.384;7.122;2022-12-29T09:40:52;11.90;99.90
2639;DHT22;1329;51.384;7.122;2022-12-29T09:43:45;11.90;99.90
2639;DHT22;1329;51.384;7.122;2022-12-29T09:46:24;12.00;99.90
2639;DHT22;1329;51.384;7.122;2022-12-29T09:48:56;12.00;99.90
2639;DHT22;1329;51.384;7.122;2022-12-29T09:51:31;12.10;99.90
2639;DHT22;1329;51.384;7.122;2022-12-29T09:54:04;12.10;99.90
2639;DHT22;1329;51.384;7.122;2022-12-29T09:56:47;12.10;99.90
2639;DHT22;1329;51.384;7.122;2022-12-29T09:59:17;12.20;99.90
2639;DHT22;1329;51.384;7.122;2022-12-29T10:01:51;12.20;99.90
2639;DHT22;1329;51.384;7.122;2022-12-29T10:04:20;12.20;99.90
2639;DHT22;1329;51.384;7.122;2022-12-29T10:06:53;12.30;99.90
2639;DHT22;1329;51.384;7.122;2022-12-29T10:09:29;12.30;99.90
2639;DHT22;1329;51.384;7.122;2022-12-29T10:12:11;12.30;99.90
2639;DHT22;1329;51.384;7.122;2022-12-29T10:14:57;12.40;99.90
2639;DHT22;1329;51.384;7.122;2022-12-29T10:17:35;12.40;99.90
2639;DHT22;1329;51.384;7.122;2022-12-29T10:20:18;12.50;99.90
2639;DHT22;1329;51.384;7.122;2022-12-29T10:23:08;12.50;99.90
2639;DHT22;1329;51.384;7.122;2022-12-29T10:25:42;12.50;99.90
2639;DHT22;1329;51.384;7.122;2022-12-29T10:28:19;12.50;99.90
2639;DHT22;1329;51.384;7.122;2022-12-29T10:30:49;12.60;99.90
2639;DHT22;1329;51.384;7.122;2022-12-29T10:33:20;12.60;99.90
2639;DHT22;1329;51.384;7.122;2022-12-29T10:35:50;12.60;99.90
2639;DHT22;1329;51.384;7.122;2022-12-29T10:38:25;12.60;99.90
2639;DHT22;1329;51.384;7.122;2022-12-29T10:40:58;12.70;99.90
2639;DHT22;1329;51.384;7.122;2022-12-29T10:43:30;12.70;99.90
2639;DHT22;1329;51.384;7.122;2022-12-29T10:46:13;12.70;99.90
2639;DHT22;1329;51.384;7.122;2022-12-29T10:48:41;12.80;99.90
2639;DHT22;1329;51.384;7.122;2022-12-29T10:51:17;12.70;99.90
2639;DHT22;1329;51.384;7.122;2022-12-29T10:53:51;12.80;99.90
2639;DHT22;1329;51.384;7.122;2022-12-29T10:56:28;12.80;99.90
2639;DHT22;1329;51.384;7.122;2022-12-29T10:59:01;12.80;99.90
2639;DHT22;1329;51.384;7.122;2022-12-29T11:01:36;12.90;99.90
2639;DHT22;1329;51.384;7.122;2022-12-29T11:04:16;12.90;99.90
2639;DHT22;1329;51.384;7.122;2022-12-29T11:06:49;12.90;99.90
2639;DHT22;1329;51.384;7.122;2022-12-29T11:09:24;12.90;99.90
2639;DHT22;1329;51.384;7.122;2022-12-29T11:11:52;12.90;99.90
2639;DHT22;1329;51.384;7.122;2022-12-29T11:14:26;12.90;99.90
2639;DHT22;1329;51.384;7.122;2022-12-29T11:16:57;12.90;99.90
2639;DHT22;1329;51.384;7.122;2022-12-29T11:19:28;12.90;99.90
2639;DHT22;1329;51.384;7.122;2022-12-29T11:22:12;12.90;99.90
2639;DHT22;1329;51.384;7.122;2022-12-29T11:24:45;12.90;99.90
2639;DHT22;1329;51.384;7.122;2022-12-29T11:27:15;12.90;99.90
2639;DHT22;1329;51.384;7.122;2022-12-29T11:29:45;12.90;99.90
2639;DHT22;1329;51.384;7.122;2022-12-29T11:32:16;12.80;99.90
2639;DHT22;1329;51.384;7.122;2022-12-29T11:34:45;12.80;99.90
2639;DHT22;1329;51.384;7.122;2022-12-29T11:37:25;12.80;99.90
2639;DHT22;1329;51.384;7.122;2022-12-29T11:39:57;12.80;99.90
2639;DHT22;1329;51.384;7.122;2022-12-29T11:42:35;12.80;99.90
2639;DHT22;1329;51.384;7.122;2022-12-29T11:45:16;12.80;99.90
2639;DHT22;1329;51.384;7.122;2022-12-29T11:47:46;12.80;99.90
2639;DHT22;1329;51.384;7.122;2022-12-29T11:50:18;12.80;99.90
2639;DHT22;1329;51.384;7.122;2022-12-29T11:52:48;12.80;99.90
2639;DHT22;1329;51.384;7.122;2022-12-29T11:55:21;12.80;99.90
2639;DHT22;1329;51.384;7.122;2022-12-29T11:57:52;12.80;99.90
2639;DHT22;1329;51.384;7.122;2022-12-29T12:01:15;12.80;99.90
2639;DHT22;1329;51.384;7.122;2022-12-29T12:03:24;12.80;99.90
2639;DHT22;1329;51.384;7.122;2022-12-29T12:05:56;12.80;99.90
2639;DHT22;1329;51.384;7.122;2022-12-29T12:08:33;12.80;99.90
2639;DHT22;1329;51.384;7.122;2022-12-29T12:11:24;12.90;99.90
2639;DHT22;1329;51.384;7.122;2022-12-29T12:14:00;12.90;99.90
2639;DHT22;1329;51.384;7.122;2022-12-29T12:16:50;12.90;99.90
2639;DHT22;1329;51.384;7.122;2022-12-29T12:19:31;12.90;99.90
2639;DHT22;1329;51.384;7.122;2022-12-29T12:25:23;12.90;99.90
2639;DHT22;1329;51.384;7.122;2022-12-29T12:27:59;12.90;99.90
2639;DHT22;1329;51.384;7.122;2022-12-29T12:30:34;12.90;99.90
2639;DHT22;1329;51.384;7.122;2022-12-29T12:33:28;12.90;99.90
2639;DHT22;1329;51.384;7.122;2022-12-29T12:36:17;12.90;99.90
2639;DHT22;1329;51.384;7.122;2022-12-29T12:38:55;12.90;99.90
2639;DHT22;1329;51.384;7.122;2022-12-29T12:41:32;12.90;99.90
2639;DHT22;1329;51.384;7.122;2022-12-29T12:44:12;12.90;99.90
2639;DHT22;1329;51.384;7.122;2022-12-29T12:47:13;12.90;99.90
2639;DHT22;1329;51.384;7.122;2022-12-29T12:50:12;12.90;99.90
2639;DHT22;1329;51.384;7.122;2022-12-29T12:52:58;12.90;99.90
2639;DHT22;1329;51.384;7.122;2022-12-29T12:55:57;12.90;99.90
2639;DHT22;1329;51.384;7.122;2022-12-29T13:01:40;12.80;99.90
2639;DHT22;1329;51.384;7.122;2022-12-29T13:07:28;12.80;99.90
2639;DHT22;1329;51.384;7.122;2022-12-29T13:13:52;12.80;99.90
2639;DHT22;1329;51.384;7.122;2022-12-29T13:16:48;12.80;99.90
2639;DHT22;1329;51.384;7.122;2022-12-29T13:19:27;12.80;99.90
2639;DHT22;1329;51.384;7.122;2022-12-29T13:22:05;12.80;99.90
2639;DHT22;1329;51.384;7.122;2022-12-29T13:24:47;12.80;99.90
2639;DHT22;1329;51.384;7.122;2022-12-29T13:27:34;12.70;99.90
2639;DHT22;1329;51.384;7.122;2022-12-29T13:30:08;12.80;99.90
2639;DHT22;1329;51.384;7.122;2022-12-29T13:32:49;12.70;99.90
2639;DHT22;1329;51.384;7.122;2022-12-29T13:35:37;12.70;99.90
2639;DHT22;1329;51.384;7.122;2022-12-29T13:38:15;12.70;99.90
2639;DHT22;1329;51.384;7.122;2022-12-29T13:40:47;12.70;99.90
2639;DHT22;1329;51.384;7.122;2022-12-29T13:43:17;12.70;99.90
2639;DHT22;1329;51.384;7.122;2022-12-29T13:45:53;12.70;99.90
2639;DHT22;1329;51.384;7.122;2022-12-29T13:48:35;12.70;99.90
2639;DHT22;1329;51.384;7.122;2022-12-29T13:51:05;12.70;99.90
2639;DHT22;1329;51.384;7.122;2022-12-29T13:53:40;12.70;99.90
2639;DHT22;1329;51.384;7.122;2022-12-29T13:56:19;12.70;99.90
2639;DHT22;1329;51.384;7.122;2022-12-29T13:58:54;12.70;99.90
2639;DHT22;1329;51.384;7.122;2022-12-29T14:01:30;12.70;99.90
2639;DHT22;1329;51.384;7.122;2022-12-29T14:04:08;12.70;99.90
2639;DHT22;1329;51.384;7.122;2022-12-29T14:06:38;12.70;99.90
2639;DHT22;1329;51.384;7.122;2022-12-29T14:09:32;12.70;99.90
2639;DHT22;1329;51.384;7.122;2022-12-29T14:12:20;12.70;99.90
2639;DHT22;1329;51.384;7.122;2022-12-29T14:14:48;12.70;99.90
2639;DHT22;1329;51.384;7.122;2022-12-29T14:17:19;12.60;99.90
2639;DHT22;1329;51.384;7.122;2022-12-29T14:19:52;12.60;99.90
2639;DHT22;1329;51.384;7.122;2022-12-29T14:22:24;12.60;99.90
2639;DHT22;1329;51.384;7.122;2022-12-29T14:24:52;12.60;99.90
2639;DHT22;1329;51.384;7.122;2022-12-29T14:27:44;12.60;99.90
2639;DHT22;1329;51.384;7.122;2022-12-29T14:30:45;12.60;99.90
2639;DHT22;1329;51.384;7.122;2022-12-29T14:33:15;12.60;99.90
2639;DHT22;1329;51.384;7.122;2022-12-29T14:35:46;12.60;99.90
2639;DHT22;1329;51.384;7.122;2022-12-29T14:38:29;12.60;99.90
2639;DHT22;1329;51.384;7.122;2022-12-29T14:44:01;12.60;99.90
2639;DHT22;1329;51.384;7.122;2022-12-29T14:46:45;12.60;99.90
2639;DHT22;1329;51.384;7.122;2022-12-29T14:49:17;12.60;99.90
2639;DHT22;1329;51.384;7.122;2022-12-29T14:51:49;12.60;99.90
2639;DHT22;1329;51.384;7.122;2022-12-29T14:54:43;12.50;99.90
2639;DHT22;1329;51.384;7.122;2022-12-29T14:57:30;12.50;99.90
2639;DHT22;1329;51.384;7.122;2022-12-29T15:00:06;12.50;99.90
2639;DHT22;1329;51.384;7.122;2022-12-29T15:02:41;12.50;99.90
2639;DHT22;1329;51.384;7.122;2022-12-29T15:05:24;12.50;99.90
2639;DHT22;1329;51.384;7.122;2022-12-29T15:07:56;12.50;99.90
2639;DHT22;1329;51.384;7.122;2022-12-29T15:10:25;12.50;99.90
2639;DHT22;1329;51.384;7.122;2022-12-29T15:13:04;12.50;99.90
2639;DHT22;1329;51.384;7.122;2022-12-29T15:15:37;12.50;99.90
2639;DHT22;1329;51.384;7.122;2022-12-29T15:18:20;12.40;99.90
2639;DHT22;1329;51.384;7.122;2022-12-29T15:20:51;12.40;99.90
2639;DHT22;1329;51.384;7.122;2022-12-29T15:23:29;12.40;99.90
2639;DHT22;1329;51.384;7.122;2022-12-29T15:25:59;12.40;99.90
2639;DHT22;1329;51.384;7.122;2022-12-29T15:28:36;12.30;99.90
2639;DHT22;1329;51.384;7.122;2022-12-29T15:31:10;12.40;99.90
2639;DHT22;1329;51.384;7.122;2022-12-29T15:33:40;12.30;99.90
2639;DHT22;1329;51.384;7.122;2022-12-29T15:36:12;12.30;99.90
2639;DHT22;1329;51.384;7.122;2022-12-29T15:38:41;12.30;99.90
2639;DHT22;1329;51.384;7.122;2022-12-29T15:41:24;12.30;99.90
2639;DHT22;1329;51.384;7.122;2022-12-29T15:44:02;12.30;99.90
2639;DHT22;1329;51.384;7.122;2022-12-29T15:46:36;12.30;99.90
2639;DHT22;1329;51.384;7.122;2022-12-29T15:49:05;12.30;99.90
2639;DHT22;1329;51.384;7.122;2022-12-29T15:51:35;12.30;99.90
2639;DHT22;1329;51.384;7.122;2022-12-29T15:54:14;12.20;99.90
2639;DHT22;1329;51.384;7.122;2022-12-29T15:56:44;12.20;99.90
2639;DHT22;1329;51.384;7.122;2022-12-29T15:59:23;12.20;99.90
2639;DHT22;1329;51.384;7.122;2022-12-29T16:01:51;12.20;99.90
2639;DHT22;1329;51.384;7.122;2022-12-29T16:04:19;12.20;99.90
2639;DHT22;1329;51.384;7.122;2022-12-29T16:06:54;12.10;99.90
2639;DHT22;1329;51.384;7.122;2022-12-29T16:09:31;12.10;99.90
2639;DHT22;1329;51.384;7.122;2022-12-29T16:12:02;12.10;99.90
2639;DHT22;1329;51.384;7.122;2022-12-29T16:14:33;12.00;99.90
2639;DHT22;1329;51.384;7.122;2022-12-29T16:17:04;12.00;99.90
2639;DHT22;1329;51.384;7.122;2022-12-29T16:19:34;12.00;99.90
2639;DHT22;1329;51.384;7.122;2022-12-29T16:22:03;12.00;99.90
2639;DHT22;1329;51.384;7.122;2022-12-29T16:24:39;12.00;99.90
2639;DHT22;1329;51.384;7.122;2022-12-29T16:27:08;11.90;99.90
2639;DHT22;1329;51.384;7.122;2022-12-29T16:29:36;11.90;99.90
2639;DHT22;1329;51.384;7.122;2022-12-29T16:32:24;11.90;99.90
2639;DHT22;1329;51.384;7.122;2022-12-29T16:35:01;11.90;99.90
2639;DHT22;1329;51.384;7.122;2022-12-29T16:37:33;11.80;99.90
2639;DHT22;1329;51.384;7.122;2022-12-29T16:40:24;11.80;99.90
2639;DHT22;1329;51.384;7.122;2022-12-29T16:42:55;11.80;99.90
2639;DHT22;1329;51.384;7.122;2022-12-29T16:48:49;11.80;99.90
2639;DHT22;1329;51.384;7.122;2022-12-29T16:51:21;11.80;99.90
2639;DHT22;1329;51.384;7.122;2022-12-29T16:53:55;11.80;99.90
2639;DHT22;1329;51.384;7.122;2022-12-29T16:56:26;11.80;99.90
2639;DHT22;1329;51.384;7.122;2022-12-29T16:59:01;11.80;99.90